METAR Data
IDs: Format: Raw Decoded Include TAF

Data at: 2156 UTC 18 Apr 2021

EDJA 182120Z AUTO 16003KT 9999 // FEW026/// OVC077/// 03/01 Q1019